Hemel Hempstead (Grovehill) weather

 Latitude N 51° 46' 21"    Longitude W 00° 27' 08"    Elevation 142 m


Nearby METAR Reports

 

EGGW - Luton Airport, United Kingdom
Distance from station: NNE 7mi, 12km
Updated: Sun, 22-Apr-2018 4:50pm BST
Clear
Clear
 Wind from W
Wind: W 18 mph , 30 km/h
Temperature: 18°C
Dew Point: 11°C
Humidity: 64%
Barometer: 1008 hPa
Clouds: Clear
Visibility: 6 miles , 10 km
2018/04/22 15:50 EGGW 221550Z AUTO 28016KT 9999 NCD 18/11 Q1008 RETS
EGWU - Northolt Raf, United Kingdom
Distance from station: S 15mi, 25km
Updated: Sun, 22-Apr-2018 3:50pm BST
Mostly Cloudy
Mostly Cloudy
 Wind from W
Wind: W 17 mph , 28 km/h
Temperature: 21°C
Dew Point: 10°C
Humidity: 50%
Barometer: 1008 hPa
Clouds: Mostly Cloudy
Visibility: 6 miles , 10 km
Cloud details: Few Clouds 1463 m
Mostly Cloudy 3658 m
2018/04/22 14:50 EGWU 221450Z 27015KT 9999 FEW048 BKN120 21/10 Q1008 NOSIG
 
EGLL - London/Heathrow, United Kingdom
Distance from station: S 20mi, 32km
Updated: Sun, 22-Apr-2018 4:20pm BST
Clear
Clear
 Wind from W
Wind: W 16 mph , 26 km/h
Temperature: 20°C
Dew Point: 11°C
Humidity: 56%
Barometer: 1008 hPa
Clouds: Clear
Visibility: 6 miles , 10 km
2018/04/22 15:20 EGLL 221520Z AUTO 27014KT 9999 NCD 20/11 Q1008 NOSIG
EGUB - Benson Raf, United Kingdom
Distance from station: WSW 28mi, 46km
Updated: Sun, 22-Apr-2018 3:50pm BST
Mostly Cloudy
Mostly Cloudy
 Wind from W
Wind: W 13 mph , 20 km/h
Temperature: 18°C
Dew Point: 11°C
Humidity: 64%
Barometer: 1009 hPa
Clouds: Mostly Cloudy
Visibility: 6 miles , 10 km
Cloud details: Few Clouds 1189 m
Mostly Cloudy 2134 m
2018/04/22 14:50 EGUB 221450Z AUTO 28011KT 9999 // FEW039/// BKN070/// 18/11 Q1009
 
EGLC - London City Airp, United Kingdom
Distance from station: SE 29mi, 46km
Updated: Sun, 22-Apr-2018 4:50pm BST
Clear
Clear
 Wind from SW
Wind: SW 17 mph , 28 km/h
Temperature: 23°C
Dew Point: 9°C
Humidity: 41%
Barometer: 1008 hPa
Clouds: Clear
Visibility: 6 miles , 10 km
2018/04/22 15:50 EGLC 221550Z AUTO 22015KT 190V260 9999 NCD 23/09 Q1008
EGSS - Stansted Airport, United Kingdom
Distance from station: ENE 30mi, 48km
Updated: Sun, 22-Apr-2018 4:50pm BST
Thunderstorm
Thunderstorm
 Wind from WSW
Wind: WSW 16 mph , 26 km/h
Temperature: 21°C
Dew Point: 11°C
Humidity: 53%
Barometer: 1007 hPa
Clouds: Thunderstorm
Visibility: 6 miles , 10 km
2018/04/22 15:50 EGSS 221550Z AUTO 24014KT 9999 //////CB 21/11 Q1007

Metar display script from Saratoga-Weather.org

:now: :gauges: :today/yesterday: :month/year: :records: :monthly records: :graphs: :Metar reports: :NOAA reports: :Rain/ET: :GDD MetOffice: :GDD NOAA: :season averages: :data summary: :system info: ::forum:


Page updated 04/09/2016 09:20:01
powered by Cumulus v1.9.4 (1099)